Boys Town, Nebraska
Current Conditions -  °F | °C
As of 7:55 AM on Wednesday 26 Nov 2014 (Local Time) from KMLE Reporting Station
Overcast Overcast  
Wind Chill: 28°   Ceiling: 1800
Heat Index: 38°   Visibility: 10mi
Dew Point: 32°   Wind: 20mph
Humidity: 80%   Direction: 310°NW
Pressure: 29.92"   Gusts: 25mph
Location:  41.26°N, 96.13°W
Report Text: KMLE 261355Z AUTO 31017G22KT 10SM OVC018 03/00 A2992 RMK AO2 T00330001
Loading
Personal Weather Stations






























Interactive Weather Map New forecast layout! Learn more

10-Day Weather Forecast

Advertisements
Track Severe Weather on mobile